createdAt,value
2017-10-02T00:00:33.203Z,4.50
2017-10-02T00:03:00.737Z,4.27
2017-10-02T00:05:28.276Z,4.83
2017-10-02T00:07:55.803Z,4.33
2017-10-02T00:10:24.125Z,4.90
2017-10-02T00:12:51.930Z,4.43
2017-10-02T00:15:19.469Z,5.57
2017-10-02T00:17:47.048Z,5.30
2017-10-02T00:20:14.583Z,4.47
2017-10-02T00:22:42.149Z,5.90
2017-10-02T00:25:09.693Z,5.00
2017-10-02T00:27:37.449Z,5.30
2017-10-02T00:30:05.742Z,5.20
2017-10-02T00:32:33.286Z,5.03
2017-10-02T00:35:00.830Z,4.80
2017-10-02T00:37:28.360Z,5.63
2017-10-02T00:39:55.897Z,5.13
2017-10-02T00:42:23.429Z,4.60
2017-10-02T00:44:50.968Z,5.43
2017-10-02T00:47:18.725Z,4.80
2017-10-02T00:49:46.276Z,4.67
2017-10-02T00:52:13.822Z,4.47
2017-10-02T00:54:41.426Z,4.33
2017-10-02T00:57:09.738Z,4.33
2017-10-02T00:59:37.304Z,4.97
2017-10-02T01:02:04.824Z,4.20
2017-10-02T01:04:33.170Z,4.70
2017-10-02T01:07:00.721Z,4.43
2017-10-02T01:09:28.257Z,4.00
2017-10-02T01:11:55.801Z,4.53
2017-10-02T01:14:23.357Z,4.63
2017-10-02T01:16:50.894Z,4.17
2017-10-02T01:19:18.420Z,4.40
2017-10-02T01:21:45.958Z,4.43
2017-10-02T01:24:13.482Z,4.30
2017-10-02T01:26:42.025Z,3.97
2017-10-02T01:29:09.557Z,4.50
2017-10-02T01:31:37.123Z,4.47
2017-10-02T01:34:04.656Z,4.40
2017-10-02T01:36:32.997Z,4.73
2017-10-02T01:39:00.538Z,4.33
2017-10-02T01:41:28.074Z,4.77
2017-10-02T01:43:55.609Z,4.20
2017-10-02T01:46:23.916Z,4.57
2017-10-02T01:48:51.447Z,4.17
2017-10-02T01:51:19.745Z,4.30
2017-10-02T01:53:47.288Z,4.00
2017-10-02T01:56:15.580Z,4.07
2017-10-02T01:58:43.108Z,3.93
2017-10-02T02:01:11.132Z,4.00
2017-10-02T02:03:38.771Z,4.40
2017-10-02T02:06:06.540Z,4.83
2017-10-02T02:08:34.120Z,4.30
2017-10-02T02:11:01.657Z,4.57
2017-10-02T02:13:29.979Z,4.40
2017-10-02T02:15:57.518Z,5.03
2017-10-02T02:18:25.087Z,4.40
2017-10-02T02:20:52.626Z,4.90
2017-10-02T02:23:20.169Z,4.23
2017-10-02T02:25:48.473Z,4.33
2017-10-02T02:28:16.013Z,4.47
2017-10-02T02:30:44.329Z,4.63
2017-10-02T02:33:11.865Z,5.10
2017-10-02T02:35:39.629Z,4.07
2017-10-02T02:38:07.262Z,4.10
2017-10-02T02:40:35.817Z,4.53
2017-10-02T02:43:03.350Z,3.70
2017-10-02T02:45:30.921Z,4.27
2017-10-02T02:47:58.685Z,4.50
2017-10-02T02:50:26.213Z,4.70
2017-10-02T02:52:53.745Z,4.13
2017-10-02T02:55:21.270Z,4.27
2017-10-02T02:57:48.824Z,3.97
2017-10-02T03:00:16.397Z,3.97
2017-10-02T03:02:44.056Z,3.97
2017-10-02T03:05:11.581Z,4.30
2017-10-02T03:07:39.150Z,3.77
2017-10-02T03:10:06.905Z,4.30
2017-10-02T03:12:34.457Z,3.90
2017-10-02T03:15:02.761Z,4.43
2017-10-02T03:17:30.330Z,3.93
2017-10-02T03:19:57.869Z,4.00
2017-10-02T03:22:25.397Z,4.30
2017-10-02T03:24:52.921Z,4.17
2017-10-02T03:27:20.453Z,4.40
2017-10-02T03:29:48.233Z,4.10
2017-10-02T03:32:15.768Z,4.80
2017-10-02T03:34:43.320Z,3.70
2017-10-02T03:37:11.618Z,3.97
2017-10-02T03:39:39.168Z,3.73
2017-10-02T03:42:06.693Z,4.20
2017-10-02T03:44:34.240Z,3.73
2017-10-02T03:47:01.760Z,4.20
2017-10-02T03:49:29.298Z,3.90
2017-10-02T03:51:57.828Z,4.33
2017-10-02T03:54:25.361Z,4.10
2017-10-02T03:56:52.894Z,3.83
2017-10-02T03:59:20.529Z,4.50
2017-10-02T04:01:48.069Z,3.73
2017-10-02T04:04:15.597Z,4.60
2017-10-02T04:06:43.893Z,4.13
2017-10-02T04:09:11.417Z,4.30
2017-10-02T04:11:39.718Z,4.70
2017-10-02T04:14:07.241Z,4.70
2017-10-02T04:16:34.765Z,4.13
2017-10-02T04:19:02.513Z,5.00
2017-10-02T04:21:30.083Z,4.60
2017-10-02T04:23:57.617Z,4.63
2017-10-02T04:26:25.921Z,4.87
2017-10-02T04:28:53.444Z,4.57
2017-10-02T04:31:21.729Z,3.90
2017-10-02T04:33:50.017Z,4.63
2017-10-02T04:36:17.549Z,4.00
2017-10-02T04:38:45.084Z,4.63
2017-10-02T04:41:12.609Z,4.20
2017-10-02T04:43:40.137Z,4.30
2017-10-02T04:46:08.432Z,4.67
2017-10-02T04:48:35.988Z,4.40
2017-10-02T04:51:04.277Z,4.60
2017-10-02T04:53:31.802Z,4.60
2017-10-02T04:55:59.333Z,4.43
2017-10-02T04:58:26.865Z,4.00
2017-10-02T05:00:54.617Z,4.67
2017-10-02T05:03:22.147Z,4.60
2017-10-02T05:05:49.684Z,3.97
2017-10-02T05:08:17.226Z,3.93
2017-10-02T05:10:44.991Z,4.10
2017-10-02T05:13:12.756Z,4.30
2017-10-02T05:15:40.285Z,4.00
2017-10-02T05:18:07.826Z,4.13
2017-10-02T05:20:36.166Z,3.90
2017-10-02T05:23:03.699Z,4.57
2017-10-02T05:25:31.222Z,3.93
2017-10-02T05:27:58.750Z,4.70
2017-10-02T05:30:26.285Z,4.00
2017-10-02T05:32:53.829Z,4.23
2017-10-02T05:35:21.389Z,4.13
2017-10-02T05:37:48.925Z,4.00
2017-10-02T05:40:17.243Z,3.43
2017-10-02T05:42:44.785Z,3.90
2017-10-02T05:45:12.326Z,3.83
2017-10-02T05:47:40.630Z,3.90
2017-10-02T05:50:08.328Z,4.97
2017-10-02T05:52:35.853Z,5.03
2017-10-02T05:55:03.376Z,3.93
2017-10-02T05:57:30.953Z,4.30
2017-10-02T05:59:59.249Z,3.53
2017-10-02T06:02:28.369Z,3.60
2017-10-02T06:04:55.904Z,3.90
2017-10-02T06:07:23.449Z,3.80
2017-10-02T06:09:51.841Z,4.50
2017-10-02T06:12:19.441Z,3.53
2017-10-02T06:14:46.973Z,3.87
2017-10-02T06:17:14.509Z,4.17
2017-10-02T06:19:42.817Z,4.23
2017-10-02T06:22:10.617Z,5.30
2017-10-02T06:24:38.181Z,5.17
2017-10-02T06:27:05.937Z,4.40
2017-10-02T06:29:33.521Z,4.10
2017-10-02T06:32:01.040Z,4.20
2017-10-02T06:34:28.745Z,4.00
2017-10-02T06:36:56.372Z,3.80
2017-10-02T06:39:24.167Z,4.40
2017-10-02T06:41:51.810Z,3.47
2017-10-02T06:44:19.340Z,3.80
2017-10-02T06:46:47.105Z,4.03
2017-10-02T06:49:14.634Z,3.80
2017-10-02T06:51:42.937Z,3.87
2017-10-02T06:54:10.472Z,4.17
2017-10-02T06:56:38.005Z,5.80
2017-10-02T06:59:05.542Z,3.67
2017-10-02T07:01:33.098Z,4.00
2017-10-02T07:04:01.762Z,4.07
2017-10-02T07:06:30.086Z,3.57
2017-10-02T07:08:57.731Z,3.27
2017-10-02T07:11:25.347Z,4.20
2017-10-02T07:13:52.909Z,4.27
2017-10-02T07:16:25.436Z,3.73
2017-10-02T07:18:53.171Z,4.20
2017-10-02T07:21:21.010Z,3.93
2017-10-02T07:23:48.545Z,3.90
2017-10-02T07:26:16.083Z,4.17
2017-10-02T07:28:43.620Z,3.93
2017-10-02T07:31:11.200Z,3.50
2017-10-02T07:33:38.805Z,3.50
2017-10-02T07:36:06.570Z,4.10
2017-10-02T07:38:34.174Z,3.70
2017-10-02T07:41:02.363Z,3.40
2017-10-02T07:43:30.643Z,3.77
2017-10-02T07:45:58.476Z,4.10
2017-10-02T07:48:26.846Z,3.90
2017-10-02T07:50:55.273Z,4.50
2017-10-02T07:53:22.851Z,3.97
2017-10-02T07:55:50.387Z,3.60
2017-10-02T07:58:17.997Z,4.20
2017-10-02T08:00:45.525Z,3.60
2017-10-02T08:03:13.066Z,4.13
2017-10-02T08:05:40.606Z,4.40
2017-10-02T08:08:08.893Z,3.43
2017-10-02T08:10:36.453Z,3.77
2017-10-02T08:13:03.986Z,3.90
2017-10-02T08:15:31.562Z,4.50
2017-10-02T08:17:59.869Z,3.93
2017-10-02T08:20:27.430Z,3.67
2017-10-02T08:22:55.010Z,3.47
2017-10-02T08:25:22.566Z,4.30
2017-10-02T08:27:50.094Z,3.30
2017-10-02T08:30:17.631Z,3.63
2017-10-02T08:32:45.942Z,3.27
2017-10-02T08:35:13.465Z,3.87
2017-10-02T08:37:41.021Z,3.73
2017-10-02T08:40:08.554Z,4.20
2017-10-02T08:42:36.117Z,3.40
2017-10-02T08:45:03.644Z,4.00
2017-10-02T08:47:31.201Z,3.80
2017-10-02T08:49:58.748Z,4.03
2017-10-02T08:52:27.305Z,3.83
2017-10-02T08:54:55.066Z,4.03
2017-10-02T08:57:22.613Z,3.63
2017-10-02T08:59:50.618Z,3.60
2017-10-02T09:02:18.934Z,4.57
2017-10-02T09:04:46.460Z,3.70
2017-10-02T09:07:14.790Z,4.50
2017-10-02T09:09:42.308Z,5.00
2017-10-02T09:12:10.604Z,4.30
2017-10-02T09:14:38.137Z,3.30
2017-10-02T09:17:06.438Z,4.03
2017-10-02T09:19:33.968Z,4.63
2017-10-02T09:22:01.710Z,3.30
2017-10-02T09:24:29.237Z,3.30
2017-10-02T09:26:56.762Z,3.60
2017-10-02T09:29:24.289Z,3.67
2017-10-02T09:31:51.817Z,4.03
2017-10-02T09:34:19.344Z,3.13
2017-10-02T09:36:47.639Z,3.03
2017-10-02T09:39:15.161Z,3.60
2017-10-02T09:41:42.681Z,3.30
2017-10-02T09:44:10.201Z,3.30
2017-10-02T09:46:38.723Z,4.23
2017-10-02T09:49:06.285Z,3.37
2017-10-02T09:51:33.814Z,3.80
2017-10-02T09:54:01.346Z,4.23
2017-10-02T09:56:29.090Z,3.20
2017-10-02T09:58:56.611Z,4.03
2017-10-02T10:01:24.149Z,3.70
2017-10-02T10:03:52.699Z,3.87
2017-10-02T10:06:20.241Z,3.50
2017-10-02T10:08:47.765Z,4.13
2017-10-02T10:11:16.058Z,3.87
2017-10-02T10:13:43.585Z,3.83
2017-10-02T10:16:11.890Z,3.73
2017-10-02T10:18:39.413Z,3.80
2017-10-02T10:21:06.941Z,3.73
2017-10-02T10:23:34.464Z,3.40
2017-10-02T10:26:02.025Z,3.77
2017-10-02T10:28:29.549Z,3.60
2017-10-02T10:30:57.085Z,3.67
2017-10-02T10:33:24.609Z,3.70
2017-10-02T10:35:52.161Z,3.70
2017-10-02T10:38:19.691Z,4.13
2017-10-02T10:40:47.995Z,3.70
2017-10-02T10:43:16.281Z,3.60
2017-10-02T10:45:43.889Z,3.37
2017-10-02T10:48:11.438Z,3.63
2017-10-02T10:50:38.983Z,4.30
2017-10-02T10:53:06.529Z,4.30
2017-10-02T10:55:34.058Z,3.43
2017-10-02T10:58:01.611Z,3.50
2017-10-02T11:00:29.145Z,4.10
2017-10-02T11:02:56.708Z,3.53
2017-10-02T11:05:24.240Z,4.10
2017-10-02T11:07:51.781Z,3.63
2017-10-02T11:10:19.575Z,4.20
2017-10-02T11:12:47.120Z,4.53
2017-10-02T11:15:14.658Z,4.30
2017-10-02T11:17:42.188Z,3.87
2017-10-02T11:20:09.723Z,3.93
2017-10-02T11:22:37.249Z,4.43
2017-10-02T11:25:04.826Z,3.73
2017-10-02T11:27:32.347Z,3.87
2017-10-02T11:29:59.921Z,4.50
2017-10-02T11:32:28.445Z,3.90
2017-10-02T11:34:55.969Z,4.10
2017-10-02T11:37:23.505Z,4.17
2017-10-02T11:39:51.774Z,3.53
2017-10-02T11:42:19.307Z,4.67
2017-10-02T11:44:46.848Z,4.03
2017-10-02T11:47:14.606Z,3.47
2017-10-02T11:49:42.149Z,3.50
2017-10-02T11:52:10.455Z,4.20
2017-10-02T11:54:37.982Z,3.73
2017-10-02T11:57:06.285Z,3.87
2017-10-02T11:59:33.814Z,4.20
2017-10-02T12:02:02.152Z,4.30
2017-10-02T12:04:29.668Z,3.60
2017-10-02T12:06:58.181Z,4.17
2017-10-02T12:09:25.705Z,3.47
2017-10-02T12:11:54.213Z,3.87
2017-10-02T12:14:21.741Z,4.30
2017-10-02T12:16:50.046Z,4.40
2017-10-02T12:19:17.588Z,3.90
2017-10-02T12:21:45.874Z,3.80
2017-10-02T12:24:13.404Z,3.90
2017-10-02T12:26:40.925Z,3.30
2017-10-02T12:29:08.471Z,4.20
2017-10-02T12:31:36.001Z,3.80
2017-10-02T12:34:04.311Z,3.83
2017-10-02T12:36:31.837Z,3.27
2017-10-02T12:39:00.132Z,4.10
2017-10-02T12:41:27.657Z,4.03
2017-10-02T12:43:55.192Z,4.00
2017-10-02T12:46:22.757Z,4.50
2017-10-02T12:48:50.293Z,4.60
2017-10-02T12:51:17.842Z,4.60
2017-10-02T12:53:45.365Z,4.97
2017-10-02T12:56:12.929Z,5.10
2017-10-02T12:58:40.457Z,5.47
2017-10-02T13:01:08.031Z,4.90
2017-10-02T13:03:35.792Z,5.10
2017-10-02T13:06:03.317Z,4.90
2017-10-02T13:08:31.074Z,5.33
2017-10-02T13:10:58.613Z,5.90
2017-10-02T13:13:26.372Z,6.03
2017-10-02T13:15:54.664Z,5.50
2017-10-02T13:18:22.213Z,5.57
2017-10-02T13:20:50.521Z,5.07
2017-10-02T13:23:18.073Z,5.30
2017-10-02T13:25:45.593Z,5.37
2017-10-02T13:28:13.149Z,5.60
2017-10-02T13:30:40.692Z,5.70
2017-10-02T13:33:08.269Z,5.93
2017-10-02T13:35:35.805Z,5.17
2017-10-02T13:38:03.344Z,5.20
2017-10-02T13:40:30.878Z,5.77
2017-10-02T13:42:59.172Z,4.83
2017-10-02T13:45:26.701Z,5.27
2017-10-02T13:47:54.294Z,5.87
2017-10-02T13:50:21.831Z,5.87
2017-10-02T13:52:50.391Z,6.33
2017-10-02T13:55:18.960Z,5.57
2017-10-02T13:57:46.502Z,6.00
2017-10-02T14:00:14.054Z,6.03
2017-10-02T14:02:41.608Z,6.13
2017-10-02T14:05:09.402Z,6.00
2017-10-02T14:07:36.940Z,6.83
2017-10-02T14:10:04.516Z,5.97
2017-10-02T14:12:32.062Z,6.23
2017-10-02T14:14:59.617Z,5.97
2017-10-02T14:17:27.178Z,7.37
2017-10-02T14:19:54.739Z,6.50
2017-10-02T14:22:22.517Z,7.33
2017-10-02T14:24:50.081Z,6.80
2017-10-02T14:27:17.868Z,6.80
2017-10-02T14:29:45.423Z,7.43
2017-10-02T14:32:12.979Z,7.37
2017-10-02T14:34:40.505Z,7.30
2017-10-02T14:37:08.047Z,7.10
2017-10-02T14:39:36.357Z,6.87
2017-10-02T14:42:03.909Z,7.40
2017-10-02T14:44:31.447Z,7.67
2017-10-02T14:46:59.013Z,7.30
2017-10-02T14:49:27.308Z,8.17
2017-10-02T14:51:54.868Z,7.50
2017-10-02T14:54:22.394Z,7.07
2017-10-02T14:56:49.969Z,7.50
2017-10-02T14:59:18.278Z,8.10
2017-10-02T15:01:46.356Z,6.60
2017-10-02T15:04:14.467Z,7.03
2017-10-02T15:06:42.865Z,7.77
2017-10-02T15:09:12.109Z,6.60
2017-10-02T15:11:39.644Z,8.00
2017-10-02T15:14:07.181Z,6.67
2017-10-02T15:16:34.742Z,6.93
2017-10-02T15:19:03.053Z,7.80
2017-10-02T15:21:30.589Z,7.50
2017-10-02T15:23:58.891Z,6.93
2017-10-02T15:26:26.413Z,7.20
2017-10-02T15:28:53.946Z,7.87
2017-10-02T15:31:21.487Z,8.03
2017-10-02T15:33:49.021Z,7.80
2017-10-02T15:36:17.306Z,7.20
2017-10-02T15:38:44.843Z,8.00
2017-10-02T15:41:13.142Z,8.13
2017-10-02T15:43:40.680Z,8.50
2017-10-02T15:46:09.004Z,7.40
2017-10-02T15:48:36.554Z,8.37
2017-10-02T15:51:04.080Z,7.97
2017-10-02T15:53:32.390Z,8.27
2017-10-02T15:55:59.921Z,8.00
2017-10-02T15:58:28.216Z,9.20
2017-10-02T16:00:55.773Z,7.23
2017-10-02T16:03:24.093Z,7.73
2017-10-02T16:05:51.655Z,8.40
2017-10-02T16:08:19.200Z,7.00
2017-10-02T16:10:46.783Z,7.50
2017-10-02T16:13:14.328Z,7.40
2017-10-02T16:15:41.918Z,7.43
2017-10-02T16:18:09.441Z,7.13
2017-10-02T16:20:36.982Z,8.20
2017-10-02T16:23:04.512Z,8.00
2017-10-02T16:25:32.037Z,7.50
2017-10-02T16:27:59.577Z,6.67
2017-10-02T16:30:27.164Z,6.97
2017-10-02T16:32:54.701Z,7.07
2017-10-02T16:35:22.287Z,7.40
2017-10-02T16:37:49.819Z,7.37
2017-10-02T16:40:17.366Z,7.43
2017-10-02T16:42:44.894Z,7.63
2017-10-02T16:45:12.425Z,7.63
2017-10-02T16:47:39.965Z,6.70
2017-10-02T16:50:07.489Z,7.43
2017-10-02T16:52:35.781Z,7.93
2017-10-02T16:55:03.318Z,8.27
2017-10-02T16:57:31.633Z,7.70
2017-10-02T16:59:59.156Z,7.30
2017-10-02T17:02:26.724Z,7.00
2017-10-02T17:04:55.025Z,8.53
2017-10-02T17:07:22.576Z,6.00
2017-10-02T17:09:50.121Z,7.80
2017-10-02T17:12:17.650Z,6.77
2017-10-02T17:14:45.195Z,6.80
2017-10-02T17:17:13.013Z,7.90
2017-10-02T17:19:41.542Z,8.30
2017-10-02T17:22:09.100Z,7.50
2017-10-02T17:24:36.621Z,6.83
2017-10-02T17:27:04.949Z,6.00
2017-10-02T17:29:32.502Z,6.20
2017-10-02T17:32:00.065Z,6.27
2017-10-02T17:34:27.602Z,6.93
2017-10-02T17:36:55.161Z,6.10
2017-10-02T17:39:22.688Z,8.10
2017-10-02T17:41:51.257Z,5.73
2017-10-02T17:44:18.789Z,6.60
2017-10-02T17:46:46.345Z,7.87
2017-10-02T17:49:13.881Z,6.07
2017-10-02T17:51:41.661Z,6.60
2017-10-02T17:54:09.202Z,8.13
2017-10-02T17:56:36.734Z,6.40
2017-10-02T17:59:04.264Z,6.20
2017-10-02T18:01:31.805Z,6.70
2017-10-02T18:03:59.349Z,7.17
2017-10-02T18:06:26.881Z,7.90
2017-10-02T18:08:54.416Z,6.37
2017-10-02T18:11:21.948Z,6.70
2017-10-02T18:13:49.482Z,6.13
2017-10-02T18:16:17.030Z,7.07
2017-10-02T18:18:45.345Z,8.20
2017-10-02T18:21:12.888Z,7.63
2017-10-02T18:23:40.425Z,5.80
2017-10-02T18:26:08.729Z,6.90
2017-10-02T18:28:36.257Z,7.53
2017-10-02T18:31:03.796Z,7.30
2017-10-02T18:33:31.327Z,6.70
2017-10-02T18:35:58.932Z,6.87
2017-10-02T18:38:26.734Z,6.93
2017-10-02T18:40:54.278Z,6.87
2017-10-02T18:43:21.837Z,6.57
2017-10-02T18:45:50.350Z,6.60
2017-10-02T18:48:18.756Z,6.53
2017-10-02T18:50:46.289Z,6.53
2017-10-02T18:53:13.853Z,5.30
2017-10-02T18:55:41.380Z,6.10
2017-10-02T18:58:09.714Z,6.50
2017-10-02T19:00:37.233Z,6.77
2017-10-02T19:03:04.933Z,6.93
2017-10-02T19:05:32.538Z,6.67
2017-10-02T19:08:00.402Z,7.23
2017-10-02T19:10:27.944Z,6.10
2017-10-02T19:12:57.323Z,6.67
2017-10-02T19:15:24.865Z,6.97
2017-10-02T19:17:52.447Z,6.40
2017-10-02T19:20:19.986Z,6.10
2017-10-02T19:22:47.549Z,5.77
2017-10-02T19:25:15.094Z,7.13
2017-10-02T19:27:42.684Z,6.27
2017-10-02T19:30:10.221Z,6.23
2017-10-02T19:32:38.020Z,7.27
2017-10-02T19:35:05.557Z,6.23
2017-10-02T19:37:33.105Z,7.00
2017-10-02T19:40:00.637Z,6.30
2017-10-02T19:42:28.941Z,6.33
2017-10-02T19:44:56.478Z,5.90
2017-10-02T19:47:24.791Z,6.87
2017-10-02T19:49:52.328Z,6.90
2017-10-02T19:52:19.919Z,5.90
2017-10-02T19:54:47.482Z,7.67
2017-10-02T19:57:15.029Z,6.33
2017-10-02T19:59:42.607Z,6.93
2017-10-02T20:02:10.220Z,5.87
2017-10-02T20:04:37.818Z,6.10
2017-10-02T20:07:05.372Z,6.77
2017-10-02T20:09:32.936Z,6.53
2017-10-02T20:12:00.485Z,5.90
2017-10-02T20:14:28.895Z,5.70
2017-10-02T20:16:56.725Z,6.43
2017-10-02T20:19:25.387Z,6.63
2017-10-02T20:21:53.132Z,5.40
2017-10-02T20:24:20.916Z,6.10
2017-10-02T20:26:48.535Z,5.80
2017-10-02T20:29:16.114Z,5.63
2017-10-02T20:31:43.670Z,5.80
2017-10-02T20:34:11.237Z,6.10
2017-10-02T20:36:38.789Z,5.13
2017-10-02T20:39:06.368Z,5.60
2017-10-02T20:41:33.922Z,5.77
2017-10-02T20:44:01.474Z,5.80
2017-10-02T20:46:29.030Z,6.10
2017-10-02T20:48:56.574Z,6.00
2017-10-02T20:51:24.161Z,6.13
2017-10-02T20:53:51.688Z,6.07
2017-10-02T20:56:19.217Z,6.00
2017-10-02T20:58:47.541Z,7.17
2017-10-02T21:01:15.070Z,5.90
2017-10-02T21:03:42.611Z,5.23
2017-10-02T21:06:10.153Z,5.53
2017-10-02T21:08:37.701Z,6.23
2017-10-02T21:11:05.237Z,5.90
2017-10-02T21:13:32.805Z,7.33
2017-10-02T21:16:00.561Z,5.20
2017-10-02T21:18:28.837Z,6.00
2017-10-02T21:20:56.365Z,5.80
2017-10-02T21:23:24.713Z,5.90
2017-10-02T21:25:52.257Z,5.70
2017-10-02T21:28:19.809Z,6.30
2017-10-02T21:30:47.362Z,5.83
2017-10-02T21:33:14.896Z,6.30
2017-10-02T21:35:43.205Z,5.30
2017-10-02T21:38:10.755Z,5.20
2017-10-02T21:40:38.297Z,6.10
2017-10-02T21:43:06.618Z,6.00
2017-10-02T21:45:34.189Z,6.70
2017-10-02T21:48:02.035Z,5.73
2017-10-02T21:50:29.578Z,7.60
2017-10-02T21:52:57.145Z,5.40
2017-10-02T21:55:24.692Z,5.43
2017-10-02T21:57:52.253Z,5.97
2017-10-02T22:00:19.836Z,5.10
2017-10-02T22:02:47.376Z,6.07
2017-10-02T22:05:14.914Z,6.50
2017-10-02T22:07:43.261Z,6.50
2017-10-02T22:10:10.825Z,5.73
2017-10-02T22:12:38.406Z,5.90
2017-10-02T22:15:06.739Z,5.63
2017-10-02T22:17:34.333Z,6.97
2017-10-02T22:20:01.874Z,6.90
2017-10-02T22:22:29.433Z,6.37
2017-10-02T22:24:56.985Z,5.67
2017-10-02T22:27:24.518Z,5.70
2017-10-02T22:29:52.089Z,6.70
2017-10-02T22:32:19.617Z,5.83
2017-10-02T22:34:47.941Z,5.57
2017-10-02T22:37:15.474Z,6.30
2017-10-02T22:39:43.045Z,5.60
2017-10-02T22:42:10.582Z,5.33
2017-10-02T22:44:38.441Z,7.17
2017-10-02T22:47:06.016Z,6.53
2017-10-02T22:49:34.341Z,6.53
2017-10-02T22:52:01.872Z,6.13
2017-10-02T22:54:29.447Z,6.80
2017-10-02T22:56:56.994Z,5.70
2017-10-02T22:59:24.532Z,7.20
2017-10-02T23:01:52.833Z,5.87
2017-10-02T23:04:20.369Z,7.60
2017-10-02T23:06:48.901Z,5.63
2017-10-02T23:09:16.678Z,6.50
2017-10-02T23:11:44.396Z,5.23
